Time;durP1;ratioP1;P1;durP2;ratioP2;P2;SDS_P1;SDS_P2;PMS_P1;PMS_P2;Temp;Humidity;BMP_temperature;BMP_pressure;BME280_temperature;BME280_humidity;BME280_pressure;Samples;Min_cycle;Max_cycle;Signal;HPM_P1;HPM_P2
2022/01/07 00:01:04;;;;;;;24.17;17.40;;;-0.70;99.90;;;;;;5052284;28;20485;-66
2022/01/07 00:03:32;;;;;;;24.67;17.17;;;-0.60;99.90;;;;;;5063822;28;20479;-64
2022/01/07 00:06:01;;;;;;;20.47;16.00;;;-0.60;99.90;;;;;;5047428;28;20451;-65
2022/01/07 00:08:29;;;;;;;24.60;17.93;;;-0.50;99.90;;;;;;5058818;28;20557;-64
2022/01/07 00:10:56;;;;;;;26.73;16.57;;;-0.50;99.90;;;;;;5053107;28;20452;-65
2022/01/07 00:13:24;;;;;;;24.57;17.20;;;-0.40;99.90;;;;;;5045848;28;20480;-65
2022/01/07 00:15:52;;;;;;;28.40;17.40;;;-0.40;99.90;;;;;;5055771;28;20527;-65
2022/01/07 00:18:19;;;;;;;27.80;17.83;;;-0.40;99.90;;;;;;5051621;28;20482;-65
2022/01/07 00:20:47;;;;;;;23.20;17.40;;;-0.40;99.90;;;;;;5045705;28;20449;-65
2022/01/07 00:23:15;;;;;;;25.73;16.90;;;-0.50;99.90;;;;;;5045162;28;20448;-65
2022/01/07 00:25:42;;;;;;;26.47;18.20;;;-0.60;99.90;;;;;;5045866;28;21016;-66
2022/01/07 00:28:09;;;;;;;23.73;16.10;;;-0.70;99.90;;;;;;5045582;28;20540;-65
2022/01/07 00:30:36;;;;;;;25.73;17.07;;;-0.80;99.90;;;;;;5045226;28;20901;-65
2022/01/07 00:33:03;;;;;;;22.47;15.00;;;-0.80;99.90;;;;;;5045794;28;20499;-66
2022/01/07 00:35:30;;;;;;;24.00;16.17;;;-0.80;99.90;;;;;;5044952;28;20467;-65
2022/01/07 00:37:57;;;;;;;25.13;16.20;;;-0.90;99.90;;;;;;5051529;28;20477;-66
2022/01/07 00:40:26;;;;;;;27.77;15.13;;;-0.90;99.90;;;;;;5045570;28;20487;-65
2022/01/07 00:42:54;;;;;;;22.70;16.33;;;-1.00;99.90;;;;;;5045875;28;20460;-64
2022/01/07 00:45:22;;;;;;;19.47;14.57;;;-0.90;99.90;;;;;;5054363;28;20465;-64
2022/01/07 00:47:50;;;;;;;18.90;13.70;;;-0.90;99.90;;;;;;5059540;28;20547;-64
2022/01/07 00:50:19;;;;;;;21.70;15.13;;;-1.00;99.90;;;;;;5065042;28;20447;-64
2022/01/07 00:52:47;;;;;;;19.67;15.63;;;-0.90;99.90;;;;;;5069297;28;20524;-64
2022/01/07 00:55:14;;;;;;;23.80;16.80;;;-0.90;99.90;;;;;;5068612;28;20538;-64
2022/01/07 00:57:42;;;;;;;20.73;14.10;;;-0.80;99.90;;;;;;5068842;28;20538;-65
2022/01/07 01:00:11;;;;;;;19.73;14.23;;;-0.90;99.90;;;;;;5069059;28;20445;-65
2022/01/07 01:02:39;;;;;;;20.30;14.27;;;-0.90;99.90;;;;;;5068890;28;20479;-65
2022/01/07 01:05:08;;;;;;;27.40;16.03;;;-1.00;99.90;;;;;;5068561;28;20525;-64
2022/01/07 01:07:35;;;;;;;20.93;15.20;;;-1.00;99.90;;;;;;5068277;28;20456;-65
2022/01/07 01:10:05;;;;;;;21.17;14.87;;;-1.00;99.90;;;;;;5068533;28;20475;-64
2022/01/07 01:12:32;;;;;;;21.00;15.40;;;-1.00;99.90;;;;;;5068580;28;20636;-65
2022/01/07 01:15:01;;;;;;;27.60;15.97;;;-1.00;99.90;;;;;;5062689;28;20535;-65
2022/01/07 01:17:28;;;;;;;20.37;15.80;;;-0.90;99.90;;;;;;5061162;28;20551;-65
2022/01/07 01:19:55;;;;;;;21.37;15.70;;;-0.90;99.90;;;;;;5055596;28;20486;-65
2022/01/07 01:22:21;;;;;;;22.87;14.63;;;-0.90;99.90;;;;;;5057865;28;20484;-64
2022/01/07 01:24:48;;;;;;;22.80;15.93;;;-0.80;99.90;;;;;;5048298;28;20449;-64
2022/01/07 01:27:15;;;;;;;20.23;14.77;;;-0.80;99.90;;;;;;5063232;28;20449;-65
2022/01/07 01:29:42;;;;;;;17.50;13.60;;;-0.80;99.90;;;;;;5071071;28;20464;-65
2022/01/07 01:32:11;;;;;;;18.70;14.70;;;-0.70;99.90;;;;;;5070236;28;20443;-65
2022/01/07 01:34:38;;;;;;;20.80;14.83;;;-0.70;99.90;;;;;;5069615;28;21003;-66
2022/01/07 01:37:05;;;;;;;19.17;14.17;;;-0.60;99.90;;;;;;5069844;28;20451;-66
2022/01/07 01:39:31;;;;;;;16.80;13.73;;;-0.70;99.90;;;;;;5069563;28;20470;-66
2022/01/07 01:41:58;;;;;;;19.90;13.90;;;-0.80;99.90;;;;;;5069899;28;20447;-66
2022/01/07 01:44:25;;;;;;;18.30;12.80;;;-0.80;99.90;;;;;;5070283;28;21016;-65
2022/01/07 01:46:52;;;;;;;22.30;13.90;;;-0.80;99.90;;;;;;5069701;28;20458;-65
2022/01/07 01:49:20;;;;;;;17.87;15.00;;;-0.70;99.90;;;;;;5069795;28;20456;-65
2022/01/07 01:51:48;;;;;;;20.60;13.70;;;-0.70;99.90;;;;;;5069580;28;20507;-65
2022/01/07 01:54:15;;;;;;;20.27;13.93;;;-0.70;99.90;;;;;;5069572;28;21212;-64
2022/01/07 01:56:42;;;;;;;22.10;15.30;;;-0.60;99.90;;;;;;5069449;28;20439;-64
2022/01/07 01:59:10;;;;;;;21.93;14.20;;;-0.70;99.90;;;;;;5069432;28;20466;-66
2022/01/07 02:01:38;;;;;;;18.27;14.13;;;-0.70;99.90;;;;;;5069300;28;20471;-65
2022/01/07 02:04:05;;;;;;;19.70;14.70;;;-0.80;99.90;;;;;;5068704;28;20493;-65
2022/01/07 02:06:35;;;;;;;21.90;14.33;;;-0.80;99.90;;;;;;5069023;28;20451;-65
2022/01/07 02:09:03;;;;;;;20.60;14.37;;;-0.90;99.90;;;;;;5069215;28;20462;-65
2022/01/07 02:11:31;;;;;;;19.90;14.90;;;-1.00;99.90;;;;;;5069396;28;20866;-65
2022/01/07 02:13:58;;;;;;;18.93;14.00;;;-1.00;99.90;;;;;;5069635;28;21083;-65
2022/01/07 02:16:25;;;;;;;20.20;14.33;;;-1.00;99.90;;;;;;5069095;28;20546;-66
2022/01/07 02:18:52;;;;;;;19.83;13.50;;;-1.00;99.90;;;;;;5069004;28;20459;-65
2022/01/07 02:21:21;;;;;;;23.03;14.30;;;-1.10;99.90;;;;;;5069429;28;20801;-65
2022/01/07 02:23:48;;;;;;;17.17;13.10;;;-1.00;99.90;;;;;;5069215;28;20439;-64
2022/01/07 02:26:15;;;;;;;15.43;11.73;;;-1.00;99.90;;;;;;5069209;28;20535;-65
2022/01/07 02:28:42;;;;;;;19.23;12.83;;;-1.00;99.90;;;;;;5068944;28;20537;-65
2022/01/07 02:31:09;;;;;;;19.63;12.40;;;-0.90;99.90;;;;;;5069391;28;20468;-66
2022/01/07 02:33:36;;;;;;;15.83;13.67;;;-1.00;99.90;;;;;;5068624;28;20836;-65
2022/01/07 02:36:07;;;;;;;18.47;13.23;;;-1.00;99.90;;;;;;5068533;28;20458;-66
2022/01/07 02:38:36;;;;;;;19.37;13.63;;;-1.00;99.90;;;;;;5068689;28;20459;-65
2022/01/07 02:41:04;;;;;;;16.60;12.37;;;-1.00;99.90;;;;;;5068703;28;20450;-65
2022/01/07 02:43:31;;;;;;;19.47;12.27;;;-0.90;99.90;;;;;;5069086;28;20931;-65
2022/01/07 02:45:58;;;;;;;22.57;13.70;;;-0.90;99.90;;;;;;5068637;28;20449;-65
2022/01/07 02:48:25;;;;;;;22.40;14.13;;;-0.80;99.90;;;;;;5068969;28;20462;-66
2022/01/07 02:50:52;;;;;;;15.60;13.20;;;-0.80;99.90;;;;;;5069059;28;20969;-65
2022/01/07 02:53:19;;;;;;;19.80;13.53;;;-0.80;99.90;;;;;;5068954;28;20489;-65
2022/01/07 02:55:47;;;;;;;19.20;12.67;;;-0.80;99.90;;;;;;5068438;28;20439;-65
2022/01/07 02:58:14;;;;;;;18.03;14.03;;;-0.70;99.90;;;;;;5068753;28;20474;-65
2022/01/07 03:00:41;;;;;;;18.90;14.60;;;-0.70;99.90;;;;;;5068211;28;20529;-65
2022/01/07 03:03:08;;;;;;;20.80;13.50;;;-0.70;99.90;;;;;;5068540;28;20443;-66
2022/01/07 03:05:39;;;;;;;19.13;13.40;;;-0.60;99.90;;;;;;5068053;28;20435;-65
2022/01/07 03:08:06;;;;;;;23.57;14.80;;;-0.60;99.90;;;;;;5068371;28;20471;-65
2022/01/07 03:10:33;;;;;;;17.70;14.20;;;-0.60;99.90;;;;;;5068106;28;20956;-65
2022/01/07 03:13:03;;;;;;;17.90;13.43;;;-0.70;99.90;;;;;;5068144;28;20487;-66
2022/01/07 03:15:32;;;;;;;24.63;13.73;;;-0.70;99.90;;;;;;5068924;28;20822;-66
2022/01/07 03:17:59;;;;;;;20.20;13.83;;;-0.70;99.90;;;;;;5068761;28;21048;-66
2022/01/07 03:20:25;;;;;;;23.17;14.43;;;-0.70;99.90;;;;;;5068200;28;20448;-66
2022/01/07 03:22:52;;;;;;;20.70;12.53;;;-0.70;99.90;;;;;;5067905;28;21344;-66
2022/01/07 03:25:20;;;;;;;19.50;12.53;;;-0.70;99.90;;;;;;5067758;28;20447;-66
2022/01/07 03:27:47;;;;;;;17.80;12.50;;;-0.70;99.90;;;;;;5067501;28;20541;-66
2022/01/07 03:30:17;;;;;;;22.57;14.57;;;-0.80;99.90;;;;;;5068093;28;20443;-66
2022/01/07 03:32:44;;;;;;;17.73;12.73;;;-0.70;99.90;;;;;;5067926;28;20550;-66
2022/01/07 03:35:12;;;;;;;21.07;14.30;;;-0.70;99.90;;;;;;5067725;28;21260;-66
2022/01/07 03:37:39;;;;;;;18.70;12.27;;;-0.70;99.90;;;;;;5067787;28;21020;-66
2022/01/07 03:40:07;;;;;;;18.30;12.93;;;-0.70;99.90;;;;;;5068237;28;20447;-65
2022/01/07 03:42:34;;;;;;;18.13;13.53;;;-0.70;99.90;;;;;;5070481;28;20866;-66
2022/01/07 03:45:01;;;;;;;16.07;12.07;;;-0.70;99.90;;;;;;5071194;28;20523;-65
2022/01/07 03:47:29;;;;;;;23.40;12.30;;;-0.70;99.90;;;;;;5071336;28;20529;-66
2022/01/07 03:49:56;;;;;;;18.10;11.97;;;-0.70;99.90;;;;;;5071150;28;20459;-65
2022/01/07 03:52:23;;;;;;;15.50;11.20;;;-0.70;99.90;;;;;;5071595;28;20444;-66
2022/01/07 03:54:50;;;;;;;17.83;12.33;;;-0.70;99.90;;;;;;5068157;28;20479;-66
2022/01/07 03:57:18;;;;;;;15.50;12.00;;;-0.70;99.90;;;;;;5067987;28;20459;-66
2022/01/07 03:59:45;;;;;;;16.47;12.50;;;-0.80;99.90;;;;;;5067528;28;20992;-65
2022/01/07 04:02:12;;;;;;;15.70;12.57;;;-0.80;99.90;;;;;;5067478;28;20464;-66
2022/01/07 04:04:40;;;;;;;17.43;13.20;;;-0.90;99.90;;;;;;5067058;28;20526;-68
2022/01/07 04:07:07;;;;;;;17.00;12.30;;;-0.90;99.90;;;;;;5067620;28;20457;-66
2022/01/07 04:09:34;;;;;;;22.83;13.90;;;-0.90;99.90;;;;;;5067682;28;20494;-66
2022/01/07 04:12:01;;;;;;;19.80;14.30;;;-1.00;99.90;;;;;;5067775;28;20447;-66
2022/01/07 04:14:28;;;;;;;17.57;12.77;;;-1.00;99.90;;;;;;5067512;28;20494;-65
2022/01/07 04:16:55;;;;;;;17.97;11.83;;;-1.10;99.90;;;;;;5067141;28;20460;-66
2022/01/07 04:19:23;;;;;;;18.03;12.23;;;-1.10;99.90;;;;;;5067641;28;20471;-66
2022/01/07 04:21:51;;;;;;;22.70;13.07;;;-1.10;99.90;;;;;;5067211;28;20465;-66
2022/01/07 04:24:19;;;;;;;14.80;10.50;;;-1.20;99.90;;;;;;5067621;28;20539;-66
2022/01/07 04:26:46;;;;;;;13.70;10.30;;;-1.10;99.90;;;;;;5069148;28;20440;-67
2022/01/07 04:29:13;;;;;;;19.17;12.30;;;-1.00;99.90;;;;;;5071438;28;20590;-65
2022/01/07 04:31:40;;;;;;;17.17;13.40;;;-1.00;99.90;;;;;;5071064;28;20969;-66
2022/01/07 04:34:07;;;;;;;19.03;12.50;;;-0.90;99.90;;;;;;5071128;28;20525;-65
2022/01/07 04:36:33;;;;;;;13.30;10.80;;;-0.90;99.90;;;;;;5070869;28;20455;-65
2022/01/07 04:39:02;;;;;;;17.20;11.67;;;-0.90;99.90;;;;;;5071606;28;20502;-65
2022/01/07 04:41:28;;;;;;;17.87;10.27;;;-0.90;99.90;;;;;;5071526;28;20443;-65
2022/01/07 04:43:55;;;;;;;17.27;10.33;;;-0.80;99.90;;;;;;5071008;28;20435;-64
2022/01/07 04:46:22;;;;;;;15.10;9.20;;;-0.80;99.90;;;;;;5071205;28;20453;-65
2022/01/07 04:48:49;;;;;;;16.70;10.17;;;-0.80;99.90;;;;;;5070512;28;20495;-66
2022/01/07 04:51:16;;;;;;;10.23;8.77;;;-0.70;99.90;;;;;;5071000;28;20432;-66
2022/01/07 04:53:42;;;;;;;13.30;10.57;;;-0.70;99.90;;;;;;5070949;28;21142;-66
2022/01/07 04:56:11;;;;;;;13.87;9.43;;;-0.60;99.90;;;;;;5070553;28;20451;-66
2022/01/07 04:58:37;;;;;;;14.43;10.20;;;-0.60;99.90;;;;;;5070622;28;20452;-66
2022/01/07 05:01:04;;;;;;;18.57;10.67;;;-0.60;99.90;;;;;;5070864;28;20534;-65
2022/01/07 05:03:31;;;;;;;14.03;9.20;;;-0.50;99.90;;;;;;5070391;28;20812;-67
2022/01/07 05:06:10;;;;;;;11.57;9.53;;;-0.50;99.90;;;;;;5070351;28;20436;-66
2022/01/07 05:08:37;;;;;;;13.47;10.17;;;-0.50;99.90;;;;;;5070504;28;21359;-67
2022/01/07 05:11:04;;;;;;;11.87;9.57;;;-0.50;99.90;;;;;;5070197;28;20457;-66
2022/01/07 05:13:33;;;;;;;15.23;9.70;;;-0.50;99.90;;;;;;5070421;28;20502;-66
2022/01/07 05:15:59;;;;;;;14.37;9.20;;;-0.50;99.90;;;;;;5069690;28;20924;-65
2022/01/07 05:18:26;;;;;;;15.87;10.70;;;-0.50;99.90;;;;;;5070319;28;20498;-65
2022/01/07 05:20:53;;;;;;;12.27;8.17;;;-0.60;99.90;;;;;;5069989;28;20448;-66
2022/01/07 05:23:20;;;;;;;14.97;9.63;;;-0.60;99.90;;;;;;5070335;28;20446;-66
2022/01/07 05:25:47;;;;;;;12.97;9.43;;;-0.60;99.90;;;;;;5069863;28;20497;-66
2022/01/07 05:28:14;;;;;;;17.27;9.40;;;-0.60;99.90;;;;;;5069963;28;20555;-66
2022/01/07 05:30:42;;;;;;;12.40;9.03;;;-0.60;99.90;;;;;;5069894;28;20447;-66
2022/01/07 05:33:09;;;;;;;13.77;8.87;;;-0.60;99.90;;;;;;5070268;28;20800;-65
2022/01/07 05:35:35;;;;;;;16.87;9.50;;;-0.50;99.90;;;;;;5069879;28;20482;-66
2022/01/07 05:38:02;;;;;;;17.53;9.90;;;-0.50;99.90;;;;;;5068510;28;20996;-66
2022/01/07 05:40:29;;;;;;;14.40;8.63;;;-0.50;99.90;;;;;;5070348;28;20451;-65
2022/01/07 05:42:56;;;;;;;13.40;9.03;;;-0.40;99.90;;;;;;5069749;28;20439;-65
2022/01/07 05:45:23;;;;;;;16.90;9.60;;;-0.40;99.90;;;;;;5069427;28;21188;-65
2022/01/07 05:47:51;;;;;;;14.07;9.03;;;-0.40;99.90;;;;;;5069648;28;20448;-65
2022/01/07 05:50:18;;;;;;;12.80;8.70;;;-0.30;99.90;;;;;;5069984;28;20454;-66
2022/01/07 05:52:45;;;;;;;14.37;8.63;;;-0.30;99.90;;;;;;5069855;28;20541;-65
2022/01/07 05:55:12;;;;;;;14.83;9.10;;;-0.30;99.90;;;;;;5069908;28;21080;-66
2022/01/07 05:57:38;;;;;;;12.43;9.10;;;-0.20;99.90;;;;;;5070090;28;20474;-65
2022/01/07 06:00:07;;;;;;;14.03;8.50;;;-0.20;99.90;;;;;;5070941;28;20962;-65
2022/01/07 06:02:34;;;;;;;17.83;9.30;;;-0.20;99.90;;;;;;5069627;28;20459;-65
2022/01/07 06:05:03;;;;;;;14.20;9.93;;;-0.20;99.90;;;;;;5069041;28;20813;-66
2022/01/07 06:07:30;;;;;;;16.17;8.97;;;-0.20;99.90;;;;;;5069684;28;20822;-65
2022/01/07 06:09:56;;;;;;;13.13;9.03;;;-0.20;99.90;;;;;;5068992;28;21145;-67
2022/01/07 06:12:23;;;;;;;14.80;8.77;;;-0.20;99.90;;;;;;5068805;28;20534;-65
2022/01/07 06:14:50;;;;;;;15.53;9.87;;;-0.10;99.90;;;;;;5068568;28;20483;-65
2022/01/07 06:17:18;;;;;;;13.07;9.27;;;-0.20;99.90;;;;;;5068907;28;20447;-67
2022/01/07 06:19:45;;;;;;;14.90;9.27;;;-0.20;99.90;;;;;;5068739;28;20467;-66
2022/01/07 06:22:14;;;;;;;13.60;9.20;;;-0.10;99.90;;;;;;5069215;28;20448;-66
2022/01/07 06:24:40;;;;;;;15.40;10.40;;;-0.10;99.90;;;;;;5068571;28;20538;-65
2022/01/07 06:27:07;;;;;;;14.93;9.50;;;-0.10;99.90;;;;;;5069155;28;20448;-65
2022/01/07 06:29:34;;;;;;;16.73;11.40;;;0.00;99.90;;;;;;5068493;28;20467;-65
2022/01/07 06:32:01;;;;;;;16.13;9.90;;;0.00;99.90;;;;;;5068512;28;20439;-64
2022/01/07 06:34:28;;;;;;;15.63;9.93;;;0.00;99.90;;;;;;5068344;28;20510;-65
2022/01/07 06:36:55;;;;;;;17.73;10.90;;;0.00;99.90;;;;;;5068301;28;20829;-65
2022/01/07 06:39:23;;;;;;;15.60;9.30;;;0.00;99.90;;;;;;5068183;28;20567;-65
2022/01/07 06:41:50;;;;;;;14.17;10.13;;;0.10;99.90;;;;;;5068220;28;20447;-66
2022/01/07 06:44:18;;;;;;;14.77;10.00;;;0.10;99.90;;;;;;5068249;28;20466;-66
2022/01/07 06:46:45;;;;;;;17.40;10.20;;;0.10;99.90;;;;;;5067718;28;20469;-65
2022/01/07 06:49:13;;;;;;;15.03;9.77;;;0.20;99.90;;;;;;5067830;28;20467;-65
2022/01/07 06:51:40;;;;;;;17.03;9.13;;;0.10;99.90;;;;;;5067678;28;20456;-65
2022/01/07 06:54:07;;;;;;;20.00;11.80;;;0.10;99.90;;;;;;5067803;28;20485;-66
2022/01/07 06:56:36;;;;;;;14.33;9.30;;;0.10;99.90;;;;;;5067637;28;20463;-67
2022/01/07 06:59:02;;;;;;;15.33;10.67;;;0.00;99.90;;;;;;5067904;28;21004;-66
2022/01/07 07:01:29;;;;;;;13.07;9.20;;;0.00;99.90;;;;;;5067536;28;20953;-66
2022/01/07 07:03:56;;;;;;;17.10;10.00;;;0.00;99.90;;;;;;5067488;28;20442;-66
2022/01/07 07:06:23;;;;;;;16.60;11.07;;;0.00;99.90;;;;;;5067108;28;20447;-66
2022/01/07 07:08:50;;;;;;;20.53;10.47;;;0.00;99.90;;;;;;5067467;28;20477;-66
2022/01/07 07:11:16;;;;;;;13.00;9.17;;;0.00;99.90;;;;;;5067886;28;20446;-65
2022/01/07 07:13:45;;;;;;;12.83;9.17;;;0.00;99.90;;;;;;5067496;28;20454;-66
2022/01/07 07:16:11;;;;;;;16.47;11.47;;;0.10;99.90;;;;;;5067312;28;20444;-66
2022/01/07 07:18:38;;;;;;;13.83;9.30;;;0.10;99.90;;;;;;5067247;28;20471;-67
2022/01/07 07:21:05;;;;;;;17.87;10.30;;;0.10;99.90;;;;;;5067397;28;20440;-67
2022/01/07 07:23:32;;;;;;;14.30;10.10;;;0.10;99.90;;;;;;5067437;28;20448;-65
2022/01/07 07:25:59;;;;;;;15.40;9.90;;;0.20;99.90;;;;;;5067241;28;20446;-66
2022/01/07 07:28:26;;;;;;;15.77;9.73;;;0.20;99.90;;;;;;5067193;28;20998;-66
2022/01/07 07:30:58;;;;;;;15.60;10.10;;;0.10;99.90;;;;;;5067327;28;20458;-66
2022/01/07 07:38:50;;;;;;;14.70;9.20;;;0.20;99.90;;;;;;5067312;28;20867;-66
2022/01/07 07:41:17;;;;;;;15.13;9.20;;;0.20;99.90;;;;;;5066983;28;20542;-67
2022/01/07 07:43:47;;;;;;;13.77;9.10;;;0.30;99.90;;;;;;5067342;28;20439;-67
2022/01/07 07:46:15;;;;;;;14.03;9.90;;;0.30;99.90;;;;;;5067051;28;20471;-65
2022/01/07 07:48:42;;;;;;;13.53;10.10;;;0.30;99.90;;;;;;5067777;28;20546;-65
2022/01/07 07:51:09;;;;;;;14.83;10.10;;;0.40;99.90;;;;;;5067304;28;20521;-63
2022/01/07 07:53:36;;;;;;;16.37;9.80;;;0.40;99.90;;;;;;5067295;28;20451;-64
2022/01/07 07:56:03;;;;;;;12.40;9.37;;;0.50;99.90;;;;;;5066610;28;20483;-65
2022/01/07 07:58:29;;;;;;;14.13;8.67;;;0.50;99.90;;;;;;5067005;28;20469;-65
2022/01/07 08:00:57;;;;;;;15.97;10.67;;;0.60;99.90;;;;;;5067797;28;20549;-65
2022/01/07 08:03:26;;;;;;;15.57;9.17;;;0.70;99.90;;;;;;5070963;28;20451;-64
2022/01/07 08:05:52;;;;;;;12.73;8.97;;;0.70;99.90;;;;;;5070713;28;20441;-65
2022/01/07 08:08:19;;;;;;;14.10;9.13;;;0.80;99.90;;;;;;5070615;28;20471;-66
2022/01/07 08:10:49;;;;;;;12.80;9.20;;;0.80;99.90;;;;;;5070575;28;20447;-64
2022/01/07 08:13:30;;;;;;;13.70;8.17;;;0.90;99.90;;;;;;5070786;28;20457;-65
2022/01/07 08:16:01;;;;;;;11.00;8.80;;;0.90;99.90;;;;;;5070788;28;20487;-65
2022/01/07 08:18:30;;;;;;;15.17;10.00;;;1.00;99.90;;;;;;5070468;28;20471;-65
2022/01/07 08:21:00;;;;;;;11.23;9.43;;;0.90;99.90;;;;;;5069911;28;20451;-66
2022/01/07 08:23:27;;;;;;;12.13;8.50;;;0.90;99.90;;;;;;5070694;28;20439;-64
2022/01/07 08:25:54;;;;;;;12.07;8.97;;;1.00;99.90;;;;;;5070847;28;20444;-66
2022/01/07 08:28:24;;;;;;;14.13;8.87;;;1.00;99.90;;;;;;5070990;28;20470;-64
2022/01/07 08:31:23;;;;;;;11.60;8.50;;;1.00;99.90;;;;;;5071219;28;20456;-66
2022/01/07 08:36:35;;;;;;;14.00;8.60;;;1.00;99.90;;;;;;5070417;28;20420;-67
2022/01/07 08:39:07;;;;;;;15.17;7.97;;;1.00;99.90;;;;;;5070328;28;21147;-65
2022/01/07 08:41:35;;;;;;;11.83;8.70;;;1.10;99.90;;;;;;5070507;28;20482;-65
2022/01/07 08:44:02;;;;;;;11.50;7.77;;;1.10;99.90;;;;;;5070410;28;20532;-66
2022/01/07 08:46:29;;;;;;;12.13;8.13;;;1.10;99.90;;;;;;5069886;28;20542;-66
2022/01/07 08:48:58;;;;;;;12.50;9.00;;;1.20;99.90;;;;;;5070535;28;20459;-63
2022/01/07 08:51:26;;;;;;;12.73;8.63;;;1.20;99.90;;;;;;5070403;28;20439;-66
2022/01/07 08:53:54;;;;;;;11.73;7.80;;;1.20;99.90;;;;;;5070359;28;20447;-65
2022/01/07 08:56:23;;;;;;;13.53;9.40;;;1.30;99.90;;;;;;5063540;28;20482;-64
2022/01/07 08:58:51;;;;;;;12.43;8.80;;;1.30;99.90;;;;;;5058094;28;20498;-66
2022/01/07 09:01:18;;;;;;;11.80;8.37;;;1.30;99.90;;;;;;5068180;28;20451;-66
2022/01/07 09:03:45;;;;;;;14.63;9.10;;;1.40;99.90;;;;;;5066233;28;20439;-66
2022/01/07 09:06:13;;;;;;;11.30;8.17;;;1.40;99.90;;;;;;5069336;28;20522;-65
2022/01/07 09:08:40;;;;;;;14.83;9.60;;;1.50;99.90;;;;;;5069936;28;20458;-66
2022/01/07 09:11:07;;;;;;;12.57;8.60;;;1.60;99.90;;;;;;5070295;28;20448;-67
2022/01/07 09:13:35;;;;;;;13.73;8.33;;;1.60;99.90;;;;;;5069064;28;20446;-66
2022/01/07 09:16:01;;;;;;;13.83;8.60;;;1.70;99.90;;;;;;5069410;28;20594;-65
2022/01/07 09:18:31;;;;;;;12.80;8.80;;;1.70;99.90;;;;;;5069780;28;20525;-65
2022/01/07 09:20:58;;;;;;;13.03;8.00;;;1.80;99.90;;;;;;5069742;28;20451;-66
2022/01/07 09:23:27;;;;;;;11.27;7.80;;;1.80;99.90;;;;;;5061565;28;20462;-64
2022/01/07 09:25:54;;;;;;;10.83;7.93;;;1.90;99.90;;;;;;5056721;28;20531;-64
2022/01/07 09:28:21;;;;;;;12.40;8.90;;;1.90;99.90;;;;;;5059972;28;20491;-66
2022/01/07 09:30:48;;;;;;;10.70;7.43;;;2.00;99.90;;;;;;5062996;28;20455;-65
2022/01/07 09:33:15;;;;;;;11.40;7.40;;;2.00;99.90;;;;;;5060749;28;20451;-66
2022/01/07 09:35:42;;;;;;;11.40;7.37;;;2.00;99.90;;;;;;5063111;28;20961;-66
2022/01/07 09:38:08;;;;;;;10.97;7.97;;;2.00;99.90;;;;;;5062402;28;20471;-66
2022/01/07 09:40:37;;;;;;;11.37;7.90;;;2.00;99.90;;;;;;5064117;28;20443;-66
2022/01/07 09:43:06;;;;;;;11.90;8.03;;;2.00;99.90;;;;;;5063466;28;20447;-66
2022/01/07 09:45:35;;;;;;;10.00;7.17;;;2.00;99.90;;;;;;5065125;28;20526;-66
2022/01/07 09:48:02;;;;;;;10.70;7.10;;;1.90;99.90;;;;;;5067517;28;20451;-68
2022/01/07 09:50:31;;;;;;;10.67;8.17;;;2.00;99.90;;;;;;5068580;28;21231;-66
2022/01/07 09:52:58;;;;;;;12.13;8.23;;;2.10;99.90;;;;;;5068986;28;21106;-66
2022/01/07 09:55:25;;;;;;;10.10;7.57;;;2.10;99.90;;;;;;5064643;28;20511;-66
2022/01/07 09:57:53;;;;;;;11.07;6.23;;;2.10;99.90;;;;;;5068400;28;20474;-66
2022/01/07 10:00:20;;;;;;;10.63;7.53;;;2.10;99.90;;;;;;5061337;28;20455;-65
2022/01/07 10:03:01;;;;;;;8.87;6.80;;;2.20;99.90;;;;;;5068760;28;20459;-66
2022/01/07 10:05:30;;;;;;;8.37;6.40;;;2.20;99.90;;;;;;5060046;28;20454;-66
2022/01/07 10:07:56;;;;;;;10.20;8.17;;;2.20;99.90;;;;;;5062934;28;20460;-66
2022/01/07 10:10:26;;;;;;;9.80;7.10;;;2.30;99.90;;;;;;5067863;28;20448;-66
2022/01/07 10:12:59;;;;;;;10.40;7.43;;;2.30;99.90;;;;;;5068831;28;20455;-66
2022/01/07 10:15:28;;;;;;;11.23;7.27;;;2.30;99.90;;;;;;5067808;28;20486;-65
2022/01/07 10:18:01;;;;;;;10.53;6.80;;;2.40;99.90;;;;;;5069369;28;20448;-66
2022/01/07 10:20:30;;;;;;;12.10;8.10;;;2.40;99.90;;;;;;5064874;28;20461;-64
2022/01/07 10:22:59;;;;;;;10.90;7.53;;;2.40;99.90;;;;;;5065173;28;20570;-66
2022/01/07 10:25:28;;;;;;;13.43;8.20;;;2.40;99.90;;;;;;5060875;28;20444;-66
2022/01/07 10:28:03;;;;;;;9.33;7.17;;;2.30;99.90;;;;;;5062805;28;21044;-66
2022/01/07 10:30:35;;;;;;;10.50;8.23;;;2.30;99.90;;;;;;5060367;28;20452;-63
2022/01/07 10:33:16;;;;;;;11.93;8.13;;;2.40;99.90;;;;;;5061108;28;20554;-66
2022/01/07 10:35:43;;;;;;;13.00;7.80;;;2.40;99.90;;;;;;5061887;28;20482;-66
2022/01/07 10:38:16;;;;;;;11.70;9.73;;;2.30;99.90;;;;;;5058919;28;20467;-66
2022/01/07 10:40:43;;;;;;;18.93;8.47;;;2.30;99.90;;;;;;5065928;28;20508;-67
2022/01/07 10:43:14;;;;;;;11.83;7.90;;;2.30;99.90;;;;;;5061990;28;20451;-67
2022/01/07 10:45:43;;;;;;;12.27;8.20;;;2.10;99.90;;;;;;5060072;28;20459;-66
2022/01/07 10:48:11;;;;;;;12.47;9.10;;;2.10;99.90;;;;;;5062287;28;20466;-65
2022/01/07 10:50:40;;;;;;;14.83;8.80;;;2.10;99.90;;;;;;5060476;28;20452;-65
2022/01/07 10:53:25;;;;;;;11.43;9.10;;;2.00;99.90;;;;;;5060695;28;20447;-65
2022/01/07 10:56:04;;;;;;;14.40;9.23;;;2.10;99.90;;;;;;5061293;28;20973;-66
2022/01/07 10:58:51;;;;;;;9.13;7.73;;;2.00;99.90;;;;;;5056309;28;20465;-65
2022/01/07 11:01:36;;;;;;;11.30;8.70;;;2.00;99.90;;;;;;5062135;28;20466;-65
2022/01/07 11:04:05;;;;;;;13.07;8.70;;;2.10;99.90;;;;;;5062204;28;20458;-65
2022/01/07 11:06:32;;;;;;;11.93;9.40;;;2.00;99.90;;;;;;5047112;28;21158;-66
2022/01/07 11:09:01;;;;;;;15.13;9.47;;;1.90;99.90;;;;;;5058220;28;20464;-65
2022/01/07 11:11:30;;;;;;;11.30;9.23;;;1.90;99.90;;;;;;5058092;28;20454;-66
2022/01/07 11:14:05;;;;;;;19.43;10.43;;;1.80;99.90;;;;;;5056845;28;20447;-65
2022/01/07 11:16:32;;;;;;;12.50;9.23;;;1.80;99.90;;;;;;5051508;28;21200;-64
2022/01/07 11:19:00;;;;;;;13.20;9.17;;;1.80;99.90;;;;;;5058363;28;20495;-65
2022/01/07 11:21:27;;;;;;;18.87;9.63;;;1.80;99.90;;;;;;5052800;28;20593;-64
2022/01/07 11:23:54;;;;;;;14.10;9.20;;;1.80;99.90;;;;;;5059204;28;20454;-64
2022/01/07 11:26:21;;;;;;;13.10;9.90;;;1.80;99.90;;;;;;5052329;28;20451;-63
2022/01/07 11:28:59;;;;;;;13.43;9.90;;;1.80;99.90;;;;;;5053518;28;20472;-65
2022/01/07 11:31:27;;;;;;;15.20;11.17;;;1.80;99.90;;;;;;5058592;28;20451;-66
2022/01/07 11:34:25;;;;;;;17.63;11.13;;;1.80;99.90;;;;;;5054198;28;20444;-66
2022/01/07 11:36:53;;;;;;;12.90;9.63;;;1.90;99.90;;;;;;5055003;28;20484;-65
2022/01/07 11:39:23;;;;;;;13.50;10.10;;;1.90;99.90;;;;;;5054850;28;20479;-65
2022/01/07 11:41:53;;;;;;;15.97;11.00;;;2.00;99.90;;;;;;5058261;28;20458;-65
2022/01/07 11:44:29;;;;;;;14.17;10.57;;;2.10;99.90;;;;;;5065162;28;20490;-64
2022/01/07 11:47:24;;;;;;;17.23;9.67;;;2.20;99.90;;;;;;5062374;28;20822;-65
2022/01/07 11:50:02;;;;;;;14.53;10.80;;;2.30;99.90;;;;;;5060401;28;20525;-65
2022/01/07 11:52:31;;;;;;;11.33;8.67;;;2.40;99.90;;;;;;5054277;28;20980;-64
2022/01/07 11:55:27;;;;;;;12.80;9.03;;;2.40;99.90;;;;;;5062987;28;20451;-66
2022/01/07 11:57:57;;;;;;;13.80;9.30;;;2.40;99.90;;;;;;5020533;28;20466;-65
2022/01/07 12:00:49;;;;;;;17.63;10.00;;;2.50;99.90;;;;;;5062828;28;20522;-64
2022/01/07 12:03:37;;;;;;;12.80;8.67;;;2.60;99.90;;;;;;5065039;28;20482;-64
2022/01/07 12:06:37;;;;;;;14.20;8.40;;;2.60;99.90;;;;;;5062889;28;20454;-64
2022/01/07 12:09:12;;;;;;;13.20;9.10;;;2.70;99.90;;;;;;5058752;28;20537;-64
2022/01/07 12:11:41;;;;;;;11.77;8.73;;;2.70;99.90;;;;;;5062168;28;20483;-65
2022/01/07 12:14:11;;;;;;;14.70;8.53;;;2.80;99.90;;;;;;5058983;28;20455;-65
2022/01/07 12:16:40;;;;;;;10.27;7.90;;;2.80;99.90;;;;;;5058242;28;20511;-63
2022/01/07 12:19:53;;;;;;;12.83;8.93;;;2.80;99.90;;;;;;5054882;28;20468;-65
2022/01/07 12:22:20;;;;;;;11.03;8.43;;;2.80;99.90;;;;;;5055381;28;20466;-66
2022/01/07 12:24:49;;;;;;;11.33;9.40;;;2.90;99.90;;;;;;5063621;28;20459;-65
2022/01/07 12:27:20;;;;;;;9.83;8.03;;;2.90;99.90;;;;;;5056818;28;20988;-64
2022/01/07 12:29:49;;;;;;;10.30;8.10;;;3.00;99.90;;;;;;5054824;28;20482;-66
2022/01/07 12:32:18;;;;;;;9.90;8.60;;;3.10;99.90;;;;;;5051604;28;22647;-66
2022/01/07 12:34:47;;;;;;;11.83;7.93;;;3.20;99.90;;;;;;5053927;28;20468;-67
2022/01/07 12:37:15;;;;;;;10.17;7.90;;;3.20;99.90;;;;;;5053797;28;20572;-66
2022/01/07 12:39:45;;;;;;;11.50;8.90;;;3.30;99.90;;;;;;5052715;28;20475;-65
2022/01/07 12:42:12;;;;;;;10.80;7.20;;;3.30;99.90;;;;;;5055644;28;20443;-66
2022/01/07 12:44:40;;;;;;;14.70;9.20;;;3.30;99.90;;;;;;5057349;28;20458;-65
2022/01/07 12:47:09;;;;;;;11.20;8.17;;;3.40;99.90;;;;;;5056330;28;20450;-65
2022/01/07 12:49:40;;;;;;;10.80;7.93;;;3.50;99.90;;;;;;5063605;28;20546;-66
2022/01/07 12:52:09;;;;;;;15.10;7.93;;;3.60;99.90;;;;;;5063006;28;20451;-66
2022/01/07 12:54:36;;;;;;;10.53;7.20;;;3.70;99.90;;;;;;5063081;28;20822;-66